Time;durP1;ratioP1;P1;durP2;ratioP2;P2;SDS_P1;SDS_P2;PMS_P1;PMS_P2;Temp;Humidity;BMP_temperature;BMP_pressure;BME280_temperature;BME280_humidity;BME280_pressure;Samples;Min_cycle;Max_cycle;Signal;HPM_P1;HPM_P2
2022/03/24 08:42:25;;;;;;;6.15;4.55;;;;;;;;;;6211825;22;20047;-91
2022/03/24 08:44:51;;;;;;;6.95;4.70;;;;;;;;;;6217292;23;20012;-90
2022/03/24 09:10:23;;;;;;;8.20;4.37;;;;;;;;;;6183628;23;20013;-91
2022/03/24 09:12:48;;;;;;;5.88;4.50;;;;;;;;;;6184990;23;20020;-88
2022/03/24 09:15:17;;;;;;;11.95;4.47;;;;;;;;;;6185160;23;20079;-85
2022/03/24 09:17:43;;;;;;;7.05;4.90;;;;;;;;;;6186634;23;20005;-86
2022/03/24 09:20:12;;;;;;;6.90;4.50;;;;;;;;;;6186416;23;20005;-93
2022/03/24 09:22:40;;;;;;;5.45;4.63;;;;;;;;;;6186488;23;20028;-91
2022/03/24 09:25:07;;;;;;;13.07;5.22;;;;;;;;;;6186065;23;20005;-87
2022/03/24 09:27:33;;;;;;;5.47;4.47;;;;;;;;;;6185897;23;20103;-88
2022/03/24 09:29:58;;;;;;;7.18;4.45;;;;;;;;;;6187577;23;20008;-95
2022/03/24 09:32:24;;;;;;;46.88;8.50;;;;;;;;;;6185982;23;20016;-87
2022/03/24 09:34:49;;;;;;;84.30;10.70;;;;;;;;;;6188129;23;20075;-92
2022/03/24 09:37:22;;;;;;;14.32;5.45;;;;;;;;;;6190830;23;20044;-89
2022/03/24 09:39:49;;;;;;;64.78;9.40;;;;;;;;;;6213330;23;20005;-87
2022/03/24 09:42:15;;;;;;;6.50;4.22;;;;;;;;;;6187862;23;20001;-93
2022/03/24 09:44:45;;;;;;;5.97;3.90;;;;;;;;;;6212604;23;20013;-90
2022/03/24 09:47:12;;;;;;;7.30;4.40;;;;;;;;;;6188894;23;20001;-90
2022/03/24 09:49:42;;;;;;;5.10;3.88;;;;;;;;;;6189464;23;20001;-93
2022/03/24 09:52:10;;;;;;;4.03;3.63;;;;;;;;;;6189399;23;20032;-91
2022/03/24 09:54:37;;;;;;;79.60;10.55;;;;;;;;;;6190331;23;20063;-87
2022/03/24 09:57:04;;;;;;;10.65;4.25;;;;;;;;;;6186478;23;20009;-86
2022/03/24 09:59:30;;;;;;;6.00;3.95;;;;;;;;;;6186706;23;20012;-83
2022/03/24 10:01:56;;;;;;;4.70;3.50;;;;;;;;;;6186308;23;20005;-86
2022/03/24 10:04:22;;;;;;;3.85;3.55;;;;;;;;;;6187894;23;20323;-86
2022/03/24 10:07:02;;;;;;;5.18;3.85;;;;;;;;;;6186225;23;20020;-89
2022/03/24 10:09:44;;;;;;;6.25;3.95;;;;;;;;;;6197720;23;20019;-88
2022/03/24 10:12:25;;;;;;;5.78;3.63;;;;;;;;;;6191191;23;20008;-88
2022/03/24 10:15:04;;;;;;;5.72;3.90;;;;;;;;;;6191529;23;20008;-87
2022/03/24 10:17:31;;;;;;;6.13;3.70;;;;;;;;;;6190859;23;20053;-86
2022/03/24 10:20:15;;;;;;;5.82;3.60;;;;;;;;;;6191128;23;20062;-86
2022/03/24 10:22:52;;;;;;;5.30;3.15;;;;;;;;;;6191066;23;20036;-86
2022/03/24 10:25:21;;;;;;;3.83;3.20;;;;;;;;;;6191803;23;20091;-87
2022/03/24 10:28:04;;;;;;;4.75;3.83;;;;;;;;;;6192335;23;20003;-90
2022/03/24 10:30:52;;;;;;;3.40;3.10;;;;;;;;;;6198280;23;20055;-89
2022/03/24 10:33:27;;;;;;;3.65;3.00;;;;;;;;;;6227902;23;20005;-93
2022/03/24 10:36:10;;;;;;;3.80;3.30;;;;;;;;;;6208975;23;20054;-87
2022/03/24 10:38:40;;;;;;;4.95;3.05;;;;;;;;;;6234315;23;20012;-94
2022/03/24 10:41:19;;;;;;;4.38;3.40;;;;;;;;;;6206009;23;20380;-87
2022/03/24 10:43:46;;;;;;;5.80;3.73;;;;;;;;;;6222491;23;20004;-87
2022/03/24 10:46:33;;;;;;;5.28;3.40;;;;;;;;;;6223081;23;20227;-89
2022/03/24 10:49:21;;;;;;;4.65;3.40;;;;;;;;;;6195700;23;20032;-88
2022/03/24 10:51:50;;;;;;;5.57;3.35;;;;;;;;;;6225725;23;20119;-91
2022/03/24 10:54:16;;;;;;;5.15;3.67;;;;;;;;;;6171150;23;20011;-89
2022/03/24 10:56:56;;;;;;;4.68;3.67;;;;;;;;;;6192293;23;20089;-90
2022/03/24 10:59:24;;;;;;;5.45;3.90;;;;;;;;;;6192368;23;20138;-89
2022/03/24 11:01:50;;;;;;;4.40;3.97;;;;;;;;;;6218682;23;20011;-90
2022/03/24 11:04:15;;;;;;;6.50;3.83;;;;;;;;;;6192261;23;20034;-90
2022/03/24 11:06:48;;;;;;;4.60;3.67;;;;;;;;;;6192168;23;20011;-91
2022/03/24 11:09:25;;;;;;;4.68;3.40;;;;;;;;;;6192394;23;20016;-90
2022/03/24 11:12:30;;;;;;;4.82;3.80;;;;;;;;;;6217406;23;20005;-86
2022/03/24 11:15:01;;;;;;;4.50;3.47;;;;;;;;;;6217585;23;20009;-86
2022/03/24 11:17:29;;;;;;;4.45;3.75;;;;;;;;;;6217369;23;20015;-87
2022/03/24 11:20:03;;;;;;;4.80;3.20;;;;;;;;;;6217395;23;20008;-87
2022/03/24 11:22:43;;;;;;;4.35;3.00;;;;;;;;;;6217321;23;20055;-84
2022/03/24 11:25:09;;;;;;;4.40;3.90;;;;;;;;;;6217133;23;20031;-86
2022/03/24 11:27:35;;;;;;;3.88;3.33;;;;;;;;;;6217228;23;20428;-87
2022/03/24 11:30:05;;;;;;;5.65;3.70;;;;;;;;;;6217741;23;20005;-85
2022/03/24 11:32:34;;;;;;;4.53;3.70;;;;;;;;;;6217305;23;20075;-87
2022/03/24 11:35:01;;;;;;;5.75;3.80;;;;;;;;;;6217147;23;20011;-85
2022/03/24 11:37:27;;;;;;;5.97;4.22;;;;;;;;;;6216933;23;20012;-84
2022/03/24 11:40:17;;;;;;;5.88;4.30;;;;;;;;;;6217083;23;20324;-84
2022/03/24 11:42:56;;;;;;;5.32;3.70;;;;;;;;;;6217012;23;20035;-85
2022/03/24 11:45:48;;;;;;;8.10;4.32;;;;;;;;;;6217316;23;20024;-86
2022/03/24 11:48:14;;;;;;;5.35;4.47;;;;;;;;;;6201146;23;20091;-85
2022/03/24 11:50:47;;;;;;;5.85;5.03;;;;;;;;;;6217434;23;20001;-87
2022/03/24 11:53:18;;;;;;;6.03;4.65;;;;;;;;;;6191081;23;20428;-87
2022/03/24 11:56:11;;;;;;;6.45;4.70;;;;;;;;;;6191313;23;20012;-88
2022/03/24 11:58:44;;;;;;;5.05;4.03;;;;;;;;;;6186646;23;20082;-86
2022/03/24 12:01:23;;;;;;;5.10;4.20;;;;;;;;;;6190529;23;20012;-87
2022/03/24 12:03:58;;;;;;;;;;;;;;;;;;6191261;23;20415;-85
2022/03/24 12:09:09;;;;;;;4.72;3.60;;;;;;;;;;6217727;23;20025;-84
2022/03/24 12:11:40;;;;;;;5.95;4.35;;;;;;;;;;6191486;23;20011;-86
2022/03/24 12:14:11;;;;;;;6.40;4.30;;;;;;;;;;6218206;23;20131;-86
2022/03/24 12:16:39;;;;;;;4.18;3.75;;;;;;;;;;6216908;23;20001;-85
2022/03/24 12:19:08;;;;;;;4.22;3.83;;;;;;;;;;6216606;23;20032;-85
2022/03/24 12:21:34;;;;;;;4.90;4.40;;;;;;;;;;6216944;23;20013;-89
2022/03/24 12:24:17;;;;;;;4.32;3.92;;;;;;;;;;6190685;23;20015;-86
2022/03/24 12:26:55;;;;;;;8.18;4.63;;;;;;;;;;6216723;23;20042;-86
2022/03/24 12:29:25;;;;;;;4.72;4.30;;;;;;;;;;6216850;23;20008;-85
2022/03/24 12:32:12;;;;;;;4.50;3.88;;;;;;;;;;6216603;23;20000;-88
2022/03/24 12:34:48;;;;;;;5.25;4.30;;;;;;;;;;6216418;23;20075;-85
2022/03/24 12:37:22;;;;;;;4.35;3.80;;;;;;;;;;6189764;23;20352;-86
2022/03/24 12:39:49;;;;;;;4.40;3.97;;;;;;;;;;6189837;23;20005;-85
2022/03/24 12:42:15;;;;;;;4.80;4.30;;;;;;;;;;6189971;23;20020;-85
2022/03/24 12:45:07;;;;;;;5.47;4.00;;;;;;;;;;6216692;23;20000;-86
2022/03/24 12:47:45;;;;;;;4.70;4.28;;;;;;;;;;6184114;23;20015;-86
2022/03/24 17:43:12;;;;;;;16.95;10.32;;;;;;;;;;6200086;23;20016;-85
2022/03/24 17:45:38;;;;;;;19.42;12.82;;;;;;;;;;6216088;23;20026;-85
2022/03/24 17:48:04;;;;;;;15.57;10.18;;;;;;;;;;6215813;23;20075;-86
2022/03/24 17:50:29;;;;;;;20.17;13.20;;;;;;;;;;6189378;23;20447;-86
2022/03/24 17:52:55;;;;;;;23.23;15.20;;;;;;;;;;6214322;23;20012;-85
2022/03/24 17:55:21;;;;;;;22.40;14.68;;;;;;;;;;6217746;23;20001;-86
2022/03/24 17:57:47;;;;;;;18.95;12.88;;;;;;;;;;6218454;23;20507;-86
2022/03/24 18:00:15;;;;;;;21.40;12.60;;;;;;;;;;6216811;23;20032;-86
2022/03/24 18:02:41;;;;;;;18.25;11.50;;;;;;;;;;6218205;23;20004;-87
2022/03/24 18:05:07;;;;;;;14.40;10.60;;;;;;;;;;6218677;23;20003;-87
2022/03/24 18:07:36;;;;;;;14.00;9.63;;;;;;;;;;6191531;23;20015;-87
2022/03/24 18:10:04;;;;;;;14.05;10.73;;;;;;;;;;6191280;23;20436;-87
2022/03/24 18:12:29;;;;;;;14.00;10.25;;;;;;;;;;6216753;23;20087;-87
2022/03/24 18:14:56;;;;;;;14.45;9.93;;;;;;;;;;6191829;23;20355;-86
2022/03/24 18:17:21;;;;;;;15.68;10.15;;;;;;;;;;6218410;23;20008;-88
2022/03/24 18:19:47;;;;;;;14.77;10.30;;;;;;;;;;6192620;23;20005;-88
2022/03/24 18:22:13;;;;;;;17.33;10.25;;;;;;;;;;6218729;23;20412;-86
2022/03/24 18:24:39;;;;;;;15.25;10.70;;;;;;;;;;6191098;23;20015;-87
2022/03/24 18:27:05;;;;;;;20.90;14.73;;;;;;;;;;6216848;23;20005;-87
2022/03/24 18:29:32;;;;;;;21.13;14.43;;;;;;;;;;6218242;23;20004;-86
2022/03/24 18:31:57;;;;;;;23.58;14.05;;;;;;;;;;6216618;23;20004;-86
2022/03/24 18:34:26;;;;;;;20.55;12.80;;;;;;;;;;6190989;23;20005;-87
2022/03/24 18:36:52;;;;;;;17.40;12.07;;;;;;;;;;6215997;23;20386;-86
2022/03/24 18:39:18;;;;;;;16.27;11.07;;;;;;;;;;6216076;23;20015;-86
2022/03/24 18:41:43;;;;;;;18.42;12.77;;;;;;;;;;6216287;23;20143;-86
2022/03/24 18:44:09;;;;;;;18.52;13.15;;;;;;;;;;6215847;23;20068;-86
2022/03/24 18:46:35;;;;;;;16.58;11.55;;;;;;;;;;6190838;23;20015;-86
2022/03/24 18:49:03;;;;;;;19.45;15.00;;;;;;;;;;6216156;23;20008;-88
2022/03/24 18:51:29;;;;;;;19.95;14.27;;;;;;;;;;6216974;23;20001;-87
2022/03/24 18:53:55;;;;;;;16.08;11.52;;;;;;;;;;6217818;23;20032;-87
2022/03/24 18:56:21;;;;;;;16.63;11.43;;;;;;;;;;6216214;23;20025;-87
2022/03/24 18:58:46;;;;;;;36.08;24.70;;;;;;;;;;6217324;23;20005;-87
2022/03/24 19:01:13;;;;;;;20.15;13.98;;;;;;;;;;6190794;23;20036;-86
2022/03/24 19:03:39;;;;;;;20.17;14.38;;;;;;;;;;6217273;23;20008;-87
2022/03/24 19:06:05;;;;;;;20.33;14.38;;;;;;;;;;6217279;23;20028;-87
2022/03/24 19:08:30;;;;;;;21.58;15.30;;;;;;;;;;6217309;23;20011;-87
2022/03/24 19:10:56;;;;;;;17.02;13.27;;;;;;;;;;6217298;23;20001;-86
2022/03/24 19:13:22;;;;;;;23.33;13.48;;;;;;;;;;6217217;23;20008;-87
2022/03/24 19:15:48;;;;;;;18.17;14.93;;;;;;;;;;6190941;23;20001;-86
2022/03/24 19:18:14;;;;;;;18.30;12.55;;;;;;;;;;6217231;23;20004;-87
2022/03/24 19:20:39;;;;;;;17.63;12.95;;;;;;;;;;6190554;23;20083;-87
2022/03/24 19:23:05;;;;;;;21.10;13.45;;;;;;;;;;6215541;23;20005;-87
2022/03/24 19:25:31;;;;;;;19.58;14.35;;;;;;;;;;6190604;23;20009;-86
2022/03/24 19:27:58;;;;;;;20.25;12.77;;;;;;;;;;6215632;23;20012;-87
2022/03/24 19:30:25;;;;;;;18.90;12.05;;;;;;;;;;6215483;23;20366;-86
2022/03/24 19:32:54;;;;;;;20.00;13.52;;;;;;;;;;6190571;23;20001;-86
2022/03/24 19:35:20;;;;;;;18.08;12.63;;;;;;;;;;6190629;23;20070;-86
2022/03/24 19:37:46;;;;;;;20.60;13.90;;;;;;;;;;6217333;23;20001;-87
2022/03/24 19:40:14;;;;;;;20.67;13.68;;;;;;;;;;6217088;23;20000;-86
2022/03/24 19:42:40;;;;;;;20.27;14.27;;;;;;;;;;6215360;23;20012;-87
2022/03/24 19:45:06;;;;;;;21.33;14.40;;;;;;;;;;6190599;23;20005;-87
2022/03/24 19:47:32;;;;;;;19.17;14.60;;;;;;;;;;6190314;23;20511;-86
2022/03/24 19:49:57;;;;;;;21.55;15.63;;;;;;;;;;6216987;23;20028;-87
2022/03/24 19:52:22;;;;;;;23.40;17.17;;;;;;;;;;6217319;23;20005;-86
2022/03/24 19:54:48;;;;;;;22.20;15.60;;;;;;;;;;6217441;23;20309;-87
2022/03/24 19:57:14;;;;;;;22.55;14.70;;;;;;;;;;6215972;23;20009;-86
2022/03/24 19:59:39;;;;;;;18.02;13.32;;;;;;;;;;6190597;23;20013;-86
2022/03/24 20:02:05;;;;;;;21.75;14.70;;;;;;;;;;6215512;23;20009;-86
2022/03/24 20:04:30;;;;;;;24.30;14.95;;;;;;;;;;6190388;23;20024;-87
2022/03/24 20:06:57;;;;;;;20.50;13.07;;;;;;;;;;6214986;23;20009;-85
2022/03/24 20:09:23;;;;;;;20.92;14.32;;;;;;;;;;6190003;23;20424;-86
2022/03/24 20:11:49;;;;;;;22.85;14.60;;;;;;;;;;6190627;23;20016;-86
2022/03/24 20:14:14;;;;;;;21.35;13.65;;;;;;;;;;6216814;23;20375;-86
2022/03/24 20:16:40;;;;;;;18.63;14.00;;;;;;;;;;6216352;23;20008;-86
2022/03/24 20:19:06;;;;;;;21.48;13.75;;;;;;;;;;6216713;23;20036;-86
2022/03/24 20:21:32;;;;;;;24.13;14.18;;;;;;;;;;6190159;23;20050;-87
2022/03/24 20:23:57;;;;;;;18.08;13.23;;;;;;;;;;6190121;23;20054;-86
2022/03/24 20:26:24;;;;;;;17.73;12.68;;;;;;;;;;6214992;23;20158;-85
2022/03/24 20:28:50;;;;;;;20.27;14.55;;;;;;;;;;6216392;23;20012;-85
2022/03/24 20:31:16;;;;;;;23.13;15.63;;;;;;;;;;6216995;23;20063;-84
2022/03/24 20:33:42;;;;;;;21.77;15.05;;;;;;;;;;6214997;23;20000;-84
2022/03/24 20:36:08;;;;;;;21.35;14.48;;;;;;;;;;6216094;23;20088;-83
2022/03/24 20:38:35;;;;;;;23.25;14.43;;;;;;;;;;6215996;23;20000;-85
2022/03/24 20:41:00;;;;;;;20.48;14.68;;;;;;;;;;6216034;23;20007;-85
2022/03/24 20:43:26;;;;;;;24.52;17.92;;;;;;;;;;6213853;23;20332;-86
2022/03/24 20:45:52;;;;;;;31.30;19.77;;;;;;;;;;6189435;23;20028;-85
2022/03/24 20:48:17;;;;;;;28.08;17.58;;;;;;;;;;6216026;23;20001;-87
2022/03/24 20:50:43;;;;;;;32.00;18.70;;;;;;;;;;6189938;23;20092;-87
2022/03/24 20:53:09;;;;;;;27.50;17.92;;;;;;;;;;6214590;23;20012;-83
2022/03/24 20:55:35;;;;;;;29.33;17.10;;;;;;;;;;6216225;23;20001;-86
2022/03/24 20:58:02;;;;;;;23.58;15.70;;;;;;;;;;6216463;23;20009;-83
2022/03/24 21:00:29;;;;;;;23.65;15.13;;;;;;;;;;6189410;23;20005;-85
2022/03/24 21:02:56;;;;;;;24.38;14.98;;;;;;;;;;6189340;23;20007;-83
2022/03/24 21:05:24;;;;;;;24.52;16.50;;;;;;;;;;6189396;23;20009;-82
2022/03/24 21:07:50;;;;;;;23.65;15.60;;;;;;;;;;6214366;23;20008;-82
2022/03/24 21:10:16;;;;;;;21.80;15.88;;;;;;;;;;6214165;23;20007;-84
2022/03/24 21:12:42;;;;;;;26.00;16.83;;;;;;;;;;6189289;23;20427;-83
2022/03/24 21:15:08;;;;;;;26.73;16.95;;;;;;;;;;6189218;23;20058;-84
2022/03/24 21:17:35;;;;;;;25.30;17.42;;;;;;;;;;6215804;23;20004;-86
2022/03/24 21:20:03;;;;;;;24.25;16.88;;;;;;;;;;6214540;23;20005;-86
2022/03/24 21:22:30;;;;;;;27.27;17.40;;;;;;;;;;6216111;23;20001;-86
2022/03/24 21:24:57;;;;;;;27.80;16.35;;;;;;;;;;6214612;23;20032;-86
2022/03/24 21:27:22;;;;;;;24.20;15.82;;;;;;;;;;6189064;23;20008;-86
2022/03/24 21:29:47;;;;;;;23.83;17.10;;;;;;;;;;6213668;23;20087;-86
2022/03/24 21:32:13;;;;;;;26.23;16.92;;;;;;;;;;6189318;23;20048;-86
2022/03/24 21:34:38;;;;;;;25.70;18.58;;;;;;;;;;6214509;23;20473;-87
2022/03/24 21:37:04;;;;;;;27.15;17.92;;;;;;;;;;6215989;23;20016;-87
2022/03/24 21:39:30;;;;;;;31.05;19.35;;;;;;;;;;6215988;23;20005;-86
2022/03/24 21:41:56;;;;;;;31.05;20.10;;;;;;;;;;6214190;23;20387;-86
2022/03/24 21:44:21;;;;;;;29.15;19.70;;;;;;;;;;6215892;23;20036;-86
2022/03/24 21:46:51;;;;;;;28.27;19.88;;;;;;;;;;6214091;23;20032;-87
2022/03/24 21:49:17;;;;;;;;;;;;;;;;;;6216190;23;20431;-85
2022/03/24 21:51:42;;;;;;;27.15;19.10;;;;;;;;;;6215826;23;19907;-85
2022/03/24 21:54:08;;;;;;;33.22;21.30;;;;;;;;;;6215797;23;20035;-87
2022/03/24 21:56:33;;;;;;;29.67;20.55;;;;;;;;;;6214305;23;20028;-86
2022/03/24 21:58:59;;;;;;;31.88;20.90;;;;;;;;;;6215882;23;20015;-89
2022/03/24 22:01:25;;;;;;;33.17;22.20;;;;;;;;;;6215965;23;20331;-85
2022/03/24 22:03:50;;;;;;;31.30;21.45;;;;;;;;;;6216171;23;20011;-88
2022/03/24 22:06:16;;;;;;;32.72;21.88;;;;;;;;;;6214207;23;20005;-88
2022/03/24 22:08:41;;;;;;;32.40;20.83;;;;;;;;;;6215887;23;20005;-87
2022/03/24 22:11:07;;;;;;;32.13;22.10;;;;;;;;;;6189126;23;20075;-86
2022/03/24 22:13:32;;;;;;;35.53;21.08;;;;;;;;;;6215649;23;20427;-86
2022/03/24 22:15:59;;;;;;;33.63;22.13;;;;;;;;;;6215884;23;20008;-86
2022/03/24 22:18:25;;;;;;;35.72;22.40;;;;;;;;;;6215688;23;20001;-87
2022/03/24 22:20:51;;;;;;;35.80;23.27;;;;;;;;;;6215685;23;20416;-87
2022/03/24 22:23:16;;;;;;;35.30;22.83;;;;;;;;;;6215796;23;20080;-87
2022/03/24 22:25:41;;;;;;;38.58;23.60;;;;;;;;;;6214142;23;20005;-85
2022/03/24 22:28:07;;;;;;;31.83;22.13;;;;;;;;;;6188952;23;20019;-86
2022/03/24 22:30:33;;;;;;;33.45;22.52;;;;;;;;;;6214113;23;20009;-85
2022/03/24 22:32:59;;;;;;;33.42;22.25;;;;;;;;;;6215556;23;20352;-87
2022/03/24 22:35:24;;;;;;;35.38;23.15;;;;;;;;;;6189154;23;20009;-87
2022/03/24 22:37:50;;;;;;;32.63;22.17;;;;;;;;;;6189154;23;20443;-87
2022/03/24 22:40:15;;;;;;;32.63;22.77;;;;;;;;;;6215950;23;20000;-86
